Time;durP1;ratioP1;P1;durP2;ratioP2;P2;SDS_P1;SDS_P2;PMS_P1;PMS_P2;Temp;Humidity;BMP_temperature;BMP_pressure;BME280_temperature;BME280_humidity;BME280_pressure;Samples;Min_cycle;Max_cycle;Signal;HPM_P1;HPM_P2
2023/06/05 00:02:01;;;;;;;5.60;3.57;;;12.60;99.90;;;;;;5071363;28;20234;-54
2023/06/05 00:04:29;;;;;;;5.93;4.43;;;12.70;99.90;;;;;;5072894;28;20233;-52
2023/06/05 00:06:57;;;;;;;6.20;4.40;;;12.60;99.90;;;;;;5072981;28;20225;-53
2023/06/05 00:09:27;;;;;;;5.33;3.93;;;12.60;99.90;;;;;;5072974;28;20219;-53
2023/06/05 00:11:55;;;;;;;5.30;3.97;;;12.60;99.90;;;;;;5073276;28;20218;-53
2023/06/05 00:14:23;;;;;;;4.60;4.10;;;12.60;99.90;;;;;;5072952;28;20234;-54
2023/06/05 00:16:51;;;;;;;6.43;3.90;;;12.60;99.90;;;;;;5059112;28;20332;-54
2023/06/05 00:19:19;;;;;;;4.80;3.43;;;12.60;99.90;;;;;;5073132;28;20313;-52
2023/06/05 00:21:50;;;;;;;6.33;4.13;;;12.70;99.90;;;;;;5072599;28;20261;-53
2023/06/05 00:24:18;;;;;;;4.80;3.50;;;12.80;99.90;;;;;;5072934;28;20226;-54
2023/06/05 00:26:48;;;;;;;6.87;4.23;;;13.00;99.90;;;;;;5072720;28;20233;-53
2023/06/05 00:29:16;;;;;;;7.63;4.23;;;12.90;99.90;;;;;;5072277;28;20305;-54
2023/06/05 00:31:45;;;;;;;4.90;3.80;;;12.70;99.90;;;;;;5070813;28;20740;-53
2023/06/05 00:34:14;;;;;;;5.00;3.83;;;13.00;99.90;;;;;;5072725;28;20247;-52
2023/06/05 00:36:42;;;;;;;4.97;3.90;;;13.00;99.90;;;;;;5072402;28;20269;-53
2023/06/05 00:39:10;;;;;;;5.67;3.87;;;13.00;99.90;;;;;;5072658;28;20257;-52
2023/06/05 00:41:41;;;;;;;3.80;3.40;;;13.00;99.90;;;;;;5071116;28;20223;-54
2023/06/05 00:44:11;;;;;;;5.70;3.73;;;12.80;99.90;;;;;;5062972;28;20628;-53
2023/06/05 00:46:39;;;;;;;4.60;3.27;;;12.70;99.90;;;;;;5072371;28;20243;-52
2023/06/05 00:49:09;;;;;;;3.20;2.90;;;12.60;99.90;;;;;;5071398;28;20247;-54
2023/06/05 00:51:37;;;;;;;4.00;3.07;;;12.70;99.90;;;;;;5070859;28;20705;-53
2023/06/05 00:54:08;;;;;;;5.93;3.00;;;12.70;99.90;;;;;;5064624;28;20210;-53
2023/06/05 00:56:36;;;;;;;5.77;3.50;;;12.60;99.90;;;;;;5071210;28;20241;-53
2023/06/05 00:59:05;;;;;;;4.07;3.40;;;12.50;99.90;;;;;;5072315;28;20230;-54
2023/06/05 01:01:36;;;;;;;5.17;3.70;;;12.40;99.90;;;;;;5071871;28;20345;-52
2023/06/05 01:04:04;;;;;;;4.47;3.63;;;12.50;99.90;;;;;;5051120;28;20234;-53
2023/06/05 01:06:33;;;;;;;6.00;3.83;;;12.50;99.90;;;;;;5061407;28;20226;-53
2023/06/05 01:09:02;;;;;;;5.43;3.60;;;12.40;99.90;;;;;;5051205;28;20310;-53
2023/06/05 01:11:38;;;;;;;5.07;4.00;;;12.40;99.90;;;;;;5050978;28;20326;-52
2023/06/05 01:14:16;;;;;;;4.47;3.90;;;12.50;99.90;;;;;;5071445;28;20251;-53
2023/06/05 01:16:48;;;;;;;5.37;3.73;;;12.40;99.90;;;;;;5072043;28;20230;-54
2023/06/05 01:19:16;;;;;;;6.87;3.73;;;12.60;99.90;;;;;;5072286;28;20240;-52
2023/06/05 01:21:44;;;;;;;3.83;3.33;;;12.50;99.90;;;;;;5072091;28;20659;-53
2023/06/05 01:24:15;;;;;;;4.00;3.33;;;12.70;99.90;;;;;;5067378;28;20269;-53
2023/06/05 01:27:00;;;;;;;3.50;3.20;;;12.80;99.90;;;;;;5069181;28;20250;-52
2023/06/05 01:29:36;;;;;;;5.23;3.60;;;12.80;99.90;;;;;;5070846;28;20233;-54
2023/06/05 01:32:12;;;;;;;3.73;3.37;;;12.90;99.90;;;;;;5071652;28;20230;-54
2023/06/05 01:34:43;;;;;;;3.87;3.40;;;13.00;99.90;;;;;;5070534;28;20332;-52
2023/06/05 01:37:14;;;;;;;4.00;3.43;;;12.70;99.90;;;;;;5062780;28;20551;-53
2023/06/05 01:39:47;;;;;;;5.37;3.20;;;12.80;99.90;;;;;;5050605;28;20698;-52
2023/06/05 01:42:17;;;;;;;5.43;4.40;;;12.60;99.90;;;;;;5058283;28;20225;-53
2023/06/05 01:44:46;;;;;;;5.47;4.53;;;12.70;99.90;;;;;;5066012;28;20268;-51
2023/06/05 01:47:14;;;;;;;4.73;3.80;;;12.80;99.90;;;;;;5074521;28;20597;-52
2023/06/05 01:49:44;;;;;;;5.53;4.20;;;12.90;99.90;;;;;;5075034;28;20222;-54
2023/06/05 01:52:12;;;;;;;5.53;4.30;;;13.00;99.90;;;;;;5075729;28;20723;-53
2023/06/05 01:54:42;;;;;;;4.87;4.23;;;12.90;99.90;;;;;;5075864;28;20250;-52
2023/06/05 01:57:11;;;;;;;4.97;4.47;;;12.80;99.90;;;;;;5075731;28;20588;-52
2023/06/05 01:59:40;;;;;;;4.50;3.83;;;12.50;99.90;;;;;;5074067;28;20238;-53
2023/06/05 02:02:10;;;;;;;5.63;3.70;;;12.50;99.90;;;;;;5075017;28;20227;-52
2023/06/05 02:04:38;;;;;;;5.13;4.63;;;12.40;99.90;;;;;;5075294;28;20309;-54
2023/06/05 02:07:07;;;;;;;5.43;4.27;;;12.20;99.90;;;;;;5075709;28;20709;-53
2023/06/05 02:09:35;;;;;;;5.17;3.60;;;12.10;99.90;;;;;;5074337;28;20778;-53
2023/06/05 02:12:03;;;;;;;4.40;4.00;;;11.90;99.90;;;;;;5075335;28;20219;-53
2023/06/05 02:14:35;;;;;;;5.03;4.40;;;11.80;99.90;;;;;;5075088;28;20254;-53
2023/06/05 02:17:05;;;;;;;5.03;4.27;;;11.80;99.90;;;;;;5061599;28;20225;-54
2023/06/05 02:19:35;;;;;;;5.47;4.90;;;11.60;99.90;;;;;;5073671;28;20340;-53
2023/06/05 02:22:03;;;;;;;6.30;4.50;;;11.40;99.90;;;;;;5075221;28;20269;-53
2023/06/05 02:24:31;;;;;;;6.47;4.53;;;11.30;99.90;;;;;;5074995;28;20256;-52
2023/06/05 02:26:59;;;;;;;3.60;3.30;;;11.30;99.90;;;;;;5073812;28;20231;-54
2023/06/05 02:29:30;;;;;;;4.37;3.90;;;11.40;99.90;;;;;;5074931;28;20240;-53
2023/06/05 02:31:59;;;;;;;4.97;3.97;;;11.40;99.90;;;;;;5089392;28;20233;-52
2023/06/05 02:34:28;;;;;;;6.93;4.57;;;11.40;99.90;;;;;;5095002;28;20303;-52
2023/06/05 02:36:56;;;;;;;5.67;4.83;;;11.40;99.90;;;;;;5095101;28;20221;-54
2023/06/05 02:39:24;;;;;;;6.83;4.77;;;11.30;99.90;;;;;;5095120;28;20810;-53
2023/06/05 02:41:52;;;;;;;5.97;4.87;;;11.20;99.90;;;;;;5095028;28;20256;-54
2023/06/05 02:44:20;;;;;;;5.87;5.27;;;11.20;99.90;;;;;;5094852;28;20223;-54
2023/06/05 02:46:48;;;;;;;6.50;5.37;;;11.10;99.90;;;;;;5076481;28;20229;-52
2023/06/05 02:49:18;;;;;;;5.60;4.93;;;11.00;99.90;;;;;;5078217;28;20260;-53
2023/06/05 02:51:46;;;;;;;5.73;4.23;;;10.90;99.90;;;;;;5064875;28;20290;-52
2023/06/05 02:54:14;;;;;;;5.43;4.53;;;11.10;99.90;;;;;;5074046;28;20221;-54
2023/06/05 02:56:44;;;;;;;3.73;3.23;;;11.10;99.90;;;;;;5056622;28;20650;-54
2023/06/05 02:59:14;;;;;;;7.73;5.03;;;11.20;99.90;;;;;;5061230;28;20224;-53
2023/06/05 03:01:43;;;;;;;7.57;5.57;;;11.00;99.90;;;;;;5075630;28;20239;-54
2023/06/05 03:04:12;;;;;;;4.50;4.10;;;10.90;99.90;;;;;;5075995;28;20255;-52
2023/06/05 03:06:43;;;;;;;4.50;3.83;;;10.80;99.90;;;;;;5092589;28;20244;-51
2023/06/05 03:09:11;;;;;;;4.20;3.80;;;10.90;99.90;;;;;;5076351;28;20228;-54
2023/06/05 03:11:40;;;;;;;5.93;4.60;;;10.90;99.90;;;;;;5076628;28;20263;-54
2023/06/05 03:14:09;;;;;;;5.63;4.23;;;10.90;99.90;;;;;;5084584;28;20246;-53
2023/06/05 03:16:41;;;;;;;5.07;4.13;;;10.80;99.90;;;;;;5081251;28;20247;-53
2023/06/05 03:19:11;;;;;;;5.27;4.20;;;10.90;99.90;;;;;;5075939;28;20281;-54
2023/06/05 03:21:42;;;;;;;5.47;4.23;;;11.00;99.90;;;;;;5075795;28;20231;-51
2023/06/05 03:24:15;;;;;;;6.70;4.87;;;11.00;99.90;;;;;;5076334;28;20647;-53
2023/06/05 03:26:48;;;;;;;5.00;3.93;;;10.90;99.90;;;;;;5075917;28;20641;-53
2023/06/05 03:29:16;;;;;;;4.23;3.83;;;11.00;99.90;;;;;;5094385;28;20244;-52
2023/06/05 03:31:45;;;;;;;4.43;4.03;;;10.90;99.90;;;;;;5076550;28;20439;-53
2023/06/05 03:34:13;;;;;;;6.47;3.80;;;11.00;99.90;;;;;;5075822;28;20734;-53
2023/06/05 03:36:43;;;;;;;4.10;3.63;;;11.00;99.90;;;;;;5077328;28;20225;-52
2023/06/05 03:39:14;;;;;;;4.33;3.80;;;11.20;99.90;;;;;;5075792;28;20225;-53
2023/06/05 03:41:43;;;;;;;4.53;4.03;;;11.00;99.90;;;;;;5075555;28;20239;-54
2023/06/05 03:44:11;;;;;;;4.80;4.30;;;11.10;99.90;;;;;;5075746;28;20221;-54
2023/06/05 03:46:39;;;;;;;4.10;3.70;;;11.10;99.90;;;;;;5093646;28;20224;-52
2023/06/05 03:49:09;;;;;;;6.63;4.30;;;11.10;99.90;;;;;;5075666;28;20228;-53
2023/06/05 03:51:39;;;;;;;4.43;4.03;;;11.10;99.90;;;;;;5075388;28;20213;-51
2023/06/05 03:54:10;;;;;;;6.67;5.27;;;11.00;99.90;;;;;;5075254;28;20222;-53
2023/06/05 03:56:42;;;;;;;5.97;4.50;;;11.00;99.90;;;;;;5075289;28;20676;-52
2023/06/05 03:59:19;;;;;;;5.00;4.13;;;11.00;99.90;;;;;;5055524;28;20261;-52
2023/06/05 04:01:51;;;;;;;5.90;5.07;;;11.10;99.90;;;;;;5076031;28;20261;-53
2023/06/05 04:04:20;;;;;;;4.83;4.03;;;11.00;99.90;;;;;;5075032;28;20232;-53
2023/06/05 04:06:54;;;;;;;5.67;4.83;;;11.10;99.90;;;;;;5075184;28;20275;-53
2023/06/05 04:09:25;;;;;;;6.53;5.17;;;11.10;99.90;;;;;;5075200;28;20224;-54
2023/06/05 04:11:54;;;;;;;5.50;4.90;;;11.20;99.90;;;;;;5075207;28;20224;-51
2023/06/05 04:14:22;;;;;;;5.90;4.63;;;11.30;99.90;;;;;;5075093;28;20221;-52
2023/06/05 04:16:51;;;;;;;6.83;5.17;;;11.30;99.90;;;;;;5074954;28;20270;-51
2023/06/05 04:19:22;;;;;;;7.27;5.97;;;11.50;99.90;;;;;;5075096;28;20224;-53
2023/06/05 04:21:53;;;;;;;8.70;7.07;;;11.40;99.90;;;;;;5074858;28;20229;-52
2023/06/05 04:24:21;;;;;;;8.10;5.77;;;11.50;99.90;;;;;;5093183;28;20234;-52
2023/06/05 04:26:51;;;;;;;6.70;6.00;;;11.60;99.90;;;;;;5093024;28;20220;-52
2023/06/05 04:29:20;;;;;;;8.27;6.40;;;11.60;99.90;;;;;;5093040;28;20221;-52
2023/06/05 04:31:50;;;;;;;7.17;6.30;;;11.60;99.90;;;;;;5075663;28;20745;-52
2023/06/05 04:34:19;;;;;;;7.83;6.10;;;11.70;99.90;;;;;;5074764;28;20246;-51
2023/06/05 04:36:49;;;;;;;7.97;6.50;;;11.80;99.90;;;;;;5091781;28;20259;-53
2023/06/05 04:39:18;;;;;;;7.83;6.60;;;11.80;99.90;;;;;;5092855;28;20229;-52
2023/06/05 04:41:47;;;;;;;9.07;6.87;;;11.90;99.90;;;;;;5081648;28;20640;-54
2023/06/05 04:44:32;;;;;;;7.73;6.27;;;11.90;99.90;;;;;;5072821;28;20322;-54
2023/06/05 04:47:01;;;;;;;8.80;6.47;;;12.10;99.90;;;;;;5071337;28;20261;-54
2023/06/05 04:49:30;;;;;;;8.73;6.53;;;12.20;99.90;;;;;;5071059;28;20249;-54
2023/06/05 04:51:59;;;;;;;10.17;7.00;;;12.20;99.90;;;;;;5067663;28;20221;-54
2023/06/05 04:54:28;;;;;;;9.73;7.43;;;12.30;99.90;;;;;;5074456;28;20233;-52
2023/06/05 04:56:56;;;;;;;9.63;7.73;;;12.40;99.90;;;;;;5092795;28;20221;-53
2023/06/05 04:59:25;;;;;;;8.67;6.37;;;12.50;99.90;;;;;;5074498;28;20586;-52
2023/06/05 05:01:55;;;;;;;8.90;6.53;;;12.60;99.90;;;;;;5063044;28;20240;-54
2023/06/05 05:04:24;;;;;;;7.83;6.73;;;12.60;99.90;;;;;;5062071;28;20222;-52
2023/06/05 05:06:53;;;;;;;8.73;6.77;;;12.80;99.90;;;;;;5062464;28;20236;-53
2023/06/05 05:09:23;;;;;;;8.97;6.63;;;13.00;99.90;;;;;;5051125;28;20296;-54
2023/06/05 05:11:52;;;;;;;8.43;7.13;;;13.00;99.90;;;;;;5056376;28;20759;-53
2023/06/05 05:14:20;;;;;;;9.83;7.03;;;13.10;99.90;;;;;;5053893;28;20235;-51
2023/06/05 05:16:49;;;;;;;11.93;7.20;;;13.10;99.90;;;;;;5067356;28;21902;-52
2023/06/05 05:19:19;;;;;;;9.50;7.03;;;13.30;99.90;;;;;;5066886;28;20631;-52
2023/06/05 05:21:47;;;;;;;10.13;6.70;;;13.30;99.90;;;;;;5067770;28;20242;-51
2023/06/05 05:24:16;;;;;;;8.47;6.30;;;13.50;99.90;;;;;;5069661;28;20690;-52
2023/06/05 05:26:44;;;;;;;9.00;6.57;;;13.70;99.90;;;;;;5074899;28;20771;-53
2023/06/05 05:29:12;;;;;;;10.47;6.37;;;13.80;99.90;;;;;;5074944;28;20225;-54
2023/06/05 05:31:40;;;;;;;8.53;6.97;;;14.00;99.90;;;;;;5070015;28;20230;-54
2023/06/05 05:34:08;;;;;;;7.67;6.10;;;14.20;99.90;;;;;;5076073;28;20225;-52
2023/06/05 05:36:38;;;;;;;7.93;6.20;;;14.40;99.90;;;;;;5066349;28;20263;-51
2023/06/05 05:39:07;;;;;;;7.80;6.10;;;14.40;99.90;;;;;;5057760;28;20712;-52
2023/06/05 05:41:35;;;;;;;8.57;5.83;;;14.50;99.90;;;;;;5074456;28;20261;-53
2023/06/05 05:44:03;;;;;;;7.33;5.90;;;14.80;99.90;;;;;;5074349;28;20223;-52
2023/06/05 05:46:31;;;;;;;7.70;5.37;;;14.90;99.90;;;;;;5064700;28;20258;-53
2023/06/05 05:49:00;;;;;;;7.27;5.50;;;15.00;99.90;;;;;;5067551;28;20223;-52
2023/06/05 05:51:28;;;;;;;6.63;5.37;;;15.20;99.90;;;;;;5063361;28;20307;-51
2023/06/05 05:53:58;;;;;;;7.63;5.23;;;15.50;99.90;;;;;;5066524;28;20258;-52
2023/06/05 05:56:27;;;;;;;6.67;4.97;;;15.60;99.90;;;;;;5065454;28;20228;-53
2023/06/05 05:58:55;;;;;;;6.40;5.23;;;15.70;99.90;;;;;;5069441;28;20306;-53
2023/06/05 06:01:23;;;;;;;6.93;5.93;;;15.80;99.90;;;;;;5068987;28;20223;-52
2023/06/05 06:03:51;;;;;;;8.47;6.10;;;15.90;99.90;;;;;;5071473;28;20682;-52
2023/06/05 06:06:20;;;;;;;8.27;6.50;;;15.90;99.90;;;;;;5071386;28;20227;-52
2023/06/05 06:08:50;;;;;;;7.70;6.17;;;15.90;99.90;;;;;;5070691;28;20219;-53
2023/06/05 06:11:19;;;;;;;7.63;5.57;;;16.00;99.90;;;;;;5068272;28;20247;-53
2023/06/05 06:13:48;;;;;;;10.37;6.23;;;16.10;99.90;;;;;;5073711;28;20223;-52
2023/06/05 06:16:16;;;;;;;8.63;6.30;;;16.20;99.90;;;;;;5074761;28;20216;-52
2023/06/05 06:18:45;;;;;;;6.67;5.60;;;16.30;99.90;;;;;;5073218;28;20227;-52
2023/06/05 06:21:15;;;;;;;10.37;6.17;;;16.50;99.90;;;;;;5066717;28;20224;-52
2023/06/05 06:23:49;;;;;;;7.43;6.50;;;16.80;99.90;;;;;;5071243;28;20716;-51
2023/06/05 06:26:19;;;;;;;8.83;5.70;;;16.70;99.90;;;;;;5067610;28;20232;-52
2023/06/05 06:28:49;;;;;;;10.23;5.73;;;16.70;99.90;;;;;;5069499;28;20678;-50
2023/06/05 06:31:20;;;;;;;7.53;5.50;;;16.90;99.90;;;;;;5082604;28;20230;-51
2023/06/05 06:33:48;;;;;;;9.20;5.27;;;17.10;99.90;;;;;;5094996;28;20692;-57
2023/06/05 06:36:17;;;;;;;10.63;5.93;;;17.20;99.90;;;;;;5093554;28;20725;-57
2023/06/05 06:38:45;;;;;;;13.40;5.70;;;17.40;99.90;;;;;;5090842;28;20227;-57
2023/06/05 06:41:13;;;;;;;8.17;5.40;;;17.60;99.90;;;;;;5087634;28;20225;-57
2023/06/05 06:43:43;;;;;;;6.20;5.60;;;17.60;99.90;;;;;;5094062;28;20218;-58
2023/06/05 06:46:11;;;;;;;8.33;6.47;;;17.80;99.90;;;;;;5073980;28;20740;-57
2023/06/05 06:48:40;;;;;;;6.83;5.50;;;18.10;99.90;;;;;;5094266;28;20230;-57
2023/06/05 06:51:08;;;;;;;6.27;5.10;;;18.00;99.90;;;;;;5094225;28;20253;-57
2023/06/05 06:53:37;;;;;;;9.70;5.80;;;18.20;99.90;;;;;;5093881;28;20767;-57
2023/06/05 06:56:07;;;;;;;7.80;5.07;;;18.30;99.90;;;;;;5093720;28;20432;-57
2023/06/05 06:58:36;;;;;;;8.20;5.70;;;18.50;99.90;;;;;;5093973;28;20220;-58
2023/06/05 07:01:06;;;;;;;6.83;5.73;;;18.50;99.90;;;;;;5087544;28;20309;-57
2023/06/05 07:03:34;;;;;;;7.33;5.40;;;18.60;99.90;;;;;;5075391;28;20232;-52
2023/06/05 07:06:03;;;;;;;7.03;5.70;;;18.70;99.90;;;;;;5072047;28;20247;-57
2023/06/05 07:08:31;;;;;;;6.37;4.60;;;18.90;99.90;;;;;;5071894;28;20258;-52
2023/06/05 07:10:59;;;;;;;6.63;5.03;;;19.00;99.90;;;;;;5069454;28;20258;-51
2023/06/05 07:13:29;;;;;;;5.90;4.97;;;19.20;99.90;;;;;;5078193;28;20251;-58
2023/06/05 07:15:57;;;;;;;8.30;5.20;;;19.30;99.90;;;;;;5078371;28;20227;-55
2023/06/05 07:18:27;;;;;;;6.40;4.57;;;19.60;99.90;;;;;;5078353;28;20222;-57
2023/06/05 07:20:55;;;;;;;7.27;5.27;;;19.60;99.90;;;;;;5077182;28;20224;-57
2023/06/05 07:23:23;;;;;;;8.53;4.67;;;19.40;99.90;;;;;;5077730;28;20314;-57
2023/06/05 07:25:52;;;;;;;9.03;5.17;;;19.50;99.90;;;;;;5073628;28;20713;-58
2023/06/05 07:28:20;;;;;;;9.50;4.97;;;19.40;99.90;;;;;;5070333;28;20226;-55
2023/06/05 07:30:50;;;;;;;9.50;4.77;;;19.60;99.90;;;;;;5063580;28;20241;-57
2023/06/05 07:33:18;;;;;;;7.30;5.13;;;19.90;99.90;;;;;;5052047;28;20231;-56
2023/06/05 07:36:02;;;;;;;6.90;4.37;;;20.00;99.90;;;;;;5051775;28;20738;-56
2023/06/05 07:38:32;;;;;;;7.83;4.80;;;20.10;99.90;;;;;;5052032;28;21246;-58
2023/06/05 07:41:01;;;;;;;7.50;5.03;;;20.00;99.90;;;;;;5054802;28;20752;-58
2023/06/05 07:43:29;;;;;;;7.00;5.10;;;19.80;99.90;;;;;;5055737;28;20811;-56
2023/06/05 07:45:58;;;;;;;8.90;4.60;;;20.20;99.90;;;;;;5053906;28;20314;-58
2023/06/05 07:48:26;;;;;;;8.30;4.97;;;20.60;99.90;;;;;;5055974;28;20227;-55
2023/06/05 07:50:54;;;;;;;7.70;5.10;;;20.70;99.90;;;;;;5053298;28;20230;-57
2023/06/05 07:53:23;;;;;;;8.07;4.60;;;20.60;99.90;;;;;;5056666;28;20218;-57
2023/06/05 07:55:51;;;;;;;9.57;5.93;;;20.80;99.90;;;;;;5055981;28;20226;-57
2023/06/05 07:58:20;;;;;;;8.67;4.63;;;21.00;99.90;;;;;;5055403;28;20231;-57
2023/06/05 08:00:48;;;;;;;6.83;4.23;;;21.10;99.90;;;;;;5054759;28;20612;-58
2023/06/05 08:03:19;;;;;;;5.90;4.20;;;21.40;99.90;;;;;;5069668;28;20226;-51
2023/06/05 08:05:49;;;;;;;7.27;4.40;;;21.50;99.90;;;;;;5069108;28;20649;-57
2023/06/05 08:08:17;;;;;;;5.10;3.97;;;21.70;99.90;;;;;;5068129;28;20217;-56
2023/06/05 08:10:47;;;;;;;6.03;3.90;;;22.00;99.90;;;;;;5068302;28;20235;-56
2023/06/05 08:13:16;;;;;;;6.00;4.20;;;22.50;99.90;;;;;;5077510;28;20215;-58
2023/06/05 08:15:45;;;;;;;6.90;3.90;;;22.50;99.90;;;;;;5075972;28;20230;-59
2023/06/05 08:18:13;;;;;;;5.93;3.93;;;22.50;99.90;;;;;;5076261;28;20259;-58
2023/06/05 08:20:41;;;;;;;5.60;4.10;;;22.30;99.90;;;;;;5075064;28;20624;-57
2023/06/05 08:23:09;;;;;;;7.53;4.23;;;22.50;99.90;;;;;;5077149;28;20334;-54
2023/06/05 08:25:37;;;;;;;4.57;3.60;;;22.20;99.90;;;;;;5076980;28;20566;-57
2023/06/05 08:28:06;;;;;;;8.13;5.47;;;22.60;99.90;;;;;;5076968;28;20231;-58
2023/06/05 08:30:34;;;;;;;6.67;4.73;;;22.80;99.90;;;;;;5070303;28;20239;-57
2023/06/05 08:33:03;;;;;;;6.63;4.67;;;22.80;99.90;;;;;;5048799;28;20233;-58
2023/06/05 08:35:31;;;;;;;6.67;3.67;;;22.40;99.90;;;;;;5048657;28;20711;-58
2023/06/05 08:38:01;;;;;;;5.67;3.23;;;23.00;99.90;;;;;;5047419;28;20546;-52
2023/06/05 08:40:31;;;;;;;6.83;3.87;;;23.70;99.90;;;;;;5046802;28;20231;-58
2023/06/05 08:43:01;;;;;;;5.87;3.70;;;23.80;99.90;;;;;;5047706;28;20231;-58
2023/06/05 08:45:31;;;;;;;5.77;4.07;;;23.80;99.90;;;;;;5048820;28;20304;-52
2023/06/05 08:48:01;;;;;;;7.97;4.13;;;23.50;99.90;;;;;;5046391;28;20232;-53
2023/06/05 08:50:30;;;;;;;6.90;3.83;;;23.90;99.90;;;;;;5044747;28;20278;-57
2023/06/05 08:53:01;;;;;;;8.53;4.20;;;24.30;99.90;;;;;;5045415;28;20896;-51
2023/06/05 08:55:31;;;;;;;5.20;4.20;;;24.50;99.90;;;;;;5045289;28;20310;-57
2023/06/05 08:57:59;;;;;;;5.97;3.57;;;24.70;99.90;;;;;;5044626;28;20573;-57
2023/06/05 09:00:28;;;;;;;5.67;3.50;;;25.30;99.90;;;;;;5044390;28;20660;-57
2023/06/05 09:02:59;;;;;;;9.50;3.80;;;25.10;99.90;;;;;;5043461;28;20224;-53
2023/06/05 09:05:27;;;;;;;6.10;3.27;;;25.20;99.90;;;;;;5043273;28;20703;-58
2023/06/05 09:07:56;;;;;;;6.30;3.40;;;25.30;99.90;;;;;;5043804;28;20217;-58
2023/06/05 09:10:26;;;;;;;6.07;3.50;;;25.40;99.90;;;;;;5041789;28;20236;-57
2023/06/05 09:12:55;;;;;;;9.17;3.63;;;25.40;99.90;;;;;;5046512;28;20217;-54
2023/06/05 09:15:24;;;;;;;9.43;4.00;;;25.60;99.90;;;;;;5047152;28;20279;-58
2023/06/05 09:18:11;;;;;;;5.93;3.90;;;25.60;99.90;;;;;;5047684;28;20218;-58
2023/06/05 09:20:41;;;;;;;5.23;3.60;;;26.10;99.90;;;;;;5044759;28;20722;-57
2023/06/05 09:23:26;;;;;;;7.73;3.80;;;26.10;99.90;;;;;;5047182;28;20864;-54
2023/06/05 09:25:58;;;;;;;5.57;4.33;;;26.20;99.90;;;;;;5049520;28;20233;-56
2023/06/05 09:28:27;;;;;;;6.10;4.10;;;25.90;99.90;;;;;;5048006;28;20234;-58
2023/06/05 09:30:57;;;;;;;5.70;3.97;;;26.10;99.90;;;;;;5030291;28;20379;-57
2023/06/05 09:33:28;;;;;;;9.17;4.83;;;26.50;99.90;;;;;;5045775;28;20245;-54
2023/06/05 09:36:04;;;;;;;5.97;4.23;;;26.40;99.90;;;;;;5046322;28;20230;-58
2023/06/05 09:38:32;;;;;;;6.97;4.83;;;26.50;99.90;;;;;;5044708;28;20236;-57
2023/06/05 09:41:05;;;;;;;6.37;4.27;;;26.50;99.90;;;;;;5042182;28;20238;-56
2023/06/05 09:43:33;;;;;;;7.07;4.80;;;26.40;99.90;;;;;;5044881;28;20218;-56
2023/06/05 09:46:10;;;;;;;6.33;4.77;;;26.30;99.90;;;;;;5045442;28;20234;-55
2023/06/05 09:48:45;;;;;;;3.93;3.13;;;26.20;99.90;;;;;;5031730;28;20234;-54
2023/06/05 09:51:15;;;;;;;4.73;3.20;;;27.10;99.90;;;;;;5047756;28;20262;-59
2023/06/05 09:53:45;;;;;;;5.80;3.20;;;27.60;99.90;;;;;;5051875;28;20227;-58
2023/06/05 09:56:15;;;;;;;6.50;4.80;;;27.80;99.90;;;;;;5051269;28;20342;-58
2023/06/05 09:58:48;;;;;;;8.77;6.10;;;27.80;99.90;;;;;;5046681;28;20226;-58
2023/06/05 10:01:19;;;;;;;6.17;4.27;;;27.50;99.90;;;;;;5044993;28;20236;-53
2023/06/05 10:03:56;;;;;;;6.93;4.57;;;27.40;99.90;;;;;;5049956;28;20241;-56
2023/06/05 10:06:28;;;;;;;11.87;3.73;;;27.30;99.90;;;;;;5050758;28;20598;-58
2023/06/05 10:08:56;;;;;;;4.47;3.50;;;27.40;99.90;;;;;;5051240;28;20634;-57
2023/06/05 10:11:26;;;;;;;7.07;3.70;;;27.60;99.90;;;;;;5048500;28;20234;-58
2023/06/05 10:13:55;;;;;;;6.97;4.47;;;27.80;99.90;;;;;;5048656;28;20243;-57
2023/06/05 10:16:23;;;;;;;6.13;3.73;;;28.20;99.90;;;;;;5048289;28;20578;-54
2023/06/05 10:18:57;;;;;;;6.73;3.27;;;28.00;99.90;;;;;;5046581;28;20230;-58
2023/06/05 10:21:25;;;;;;;4.57;3.10;;;28.10;99.90;;;;;;5046133;28;20309;-58
2023/06/05 10:23:58;;;;;;;5.60;3.77;;;28.20;99.90;;;;;;5047701;28;20244;-53
2023/06/05 10:26:46;;;;;;;5.03;3.00;;;28.20;99.90;;;;;;5047469;28;20283;-59
2023/06/05 10:29:27;;;;;;;4.40;3.30;;;28.40;99.90;;;;;;5046618;28;20228;-59
2023/06/05 10:32:02;;;;;;;5.93;3.50;;;28.60;99.90;;;;;;5047049;28;20242;-53
2023/06/05 10:34:47;;;;;;;7.20;4.03;;;28.50;99.90;;;;;;5046812;28;20757;-56
2023/06/05 10:37:40;;;;;;;5.63;3.67;;;28.40;99.90;;;;;;5050622;28;20231;-58
2023/06/05 10:40:10;;;;;;;6.63;3.60;;;28.30;99.90;;;;;;5049985;28;20250;-58
2023/06/05 10:42:38;;;;;;;7.37;2.93;;;28.40;99.90;;;;;;5050747;28;20245;-54
2023/06/05 10:45:08;;;;;;;6.07;3.27;;;28.80;99.90;;;;;;5050226;28;20594;-58
2023/06/05 10:47:52;;;;;;;6.73;3.80;;;29.00;99.90;;;;;;5049870;28;21470;-59
2023/06/05 10:50:25;;;;;;;5.83;3.27;;;29.20;99.90;;;;;;5046275;28;20222;-58
2023/06/05 10:52:54;;;;;;;4.63;3.07;;;28.90;99.90;;;;;;5049108;28;20227;-51
2023/06/05 10:55:23;;;;;;;4.27;3.10;;;28.70;99.90;;;;;;5049182;28;20230;-54
2023/06/05 10:58:10;;;;;;;3.63;3.27;;;28.70;99.90;;;;;;5048357;28;20515;-49
2023/06/05 11:00:39;;;;;;;6.60;3.70;;;28.50;99.90;;;;;;5044818;28;20251;-49
2023/06/05 11:03:07;;;;;;;5.17;3.47;;;28.30;99.90;;;;;;5048571;28;20685;-52
2023/06/05 11:05:36;;;;;;;5.43;3.40;;;28.20;99.90;;;;;;5047504;28;20241;-51
2023/06/05 11:08:12;;;;;;;6.70;3.50;;;28.70;99.90;;;;;;5028584;28;20234;-51
2023/06/05 11:11:03;;;;;;;4.73;3.57;;;29.10;99.90;;;;;;5044153;28;20235;-49
2023/06/05 11:13:54;;;;;;;6.33;3.27;;;29.10;99.90;;;;;;5047310;28;20227;-50
2023/06/05 11:16:33;;;;;;;4.97;3.23;;;29.30;99.90;;;;;;5048132;28;20231;-53
2023/06/05 11:19:36;;;;;;;5.07;3.07;;;29.10;99.90;;;;;;5056402;28;20350;-53
2023/06/05 11:22:11;;;;;;;5.80;3.20;;;28.90;99.70;;;;;;5045710;28;20234;-50
2023/06/05 11:24:39;;;;;;;5.73;2.77;;;29.00;99.90;;;;;;5049944;28;20227;-53
2023/06/05 11:27:28;;;;;;;5.87;2.93;;;28.90;99.90;;;;;;5034267;28;20232;-50
2023/06/05 11:29:57;;;;;;;7.43;3.40;;;29.20;99.90;;;;;;5048071;28;20224;-52
2023/06/05 11:32:26;;;;;;;4.63;2.73;;;29.10;99.90;;;;;;5050205;28;20742;-51
2023/06/05 11:34:58;;;;;;;6.10;2.80;;;28.90;99.90;;;;;;5049054;28;20767;-49
2023/06/05 11:37:28;;;;;;;5.10;2.87;;;28.90;99.90;;;;;;5050716;28;20224;-52
2023/06/05 11:39:56;;;;;;;5.17;3.00;;;29.30;99.90;;;;;;5049089;28;20220;-52
2023/06/05 11:42:25;;;;;;;5.00;3.37;;;29.20;99.90;;;;;;5050222;28;20231;-53
2023/06/05 11:44:53;;;;;;;5.87;3.00;;;29.00;99.90;;;;;;5051495;28;20239;-51
2023/06/05 11:47:24;;;;;;;6.43;3.60;;;28.90;99.90;;;;;;5049232;28;20239;-52
2023/06/05 11:49:53;;;;;;;5.70;3.27;;;28.30;99.40;;;;;;5047680;28;20298;-52
2023/06/05 11:52:22;;;;;;;4.87;2.70;;;28.40;99.90;;;;;;5046208;28;20313;-50
2023/06/05 11:55:05;;;;;;;4.57;2.80;;;28.70;99.90;;;;;;5045848;28;20219;-51
2023/06/05 11:57:41;;;;;;;3.27;2.43;;;28.80;99.90;;;;;;5047087;28;20229;-51
2023/06/05 12:00:25;;;;;;;7.17;3.40;;;29.10;99.90;;;;;;5045713;28;20686;-50
2023/06/05 12:02:54;;;;;;;4.67;3.10;;;28.30;99.90;;;;;;5049488;28;20219;-50
2023/06/05 12:05:22;;;;;;;4.47;2.87;;;28.10;99.90;;;;;;5049230;28;20227;-52
2023/06/05 12:07:50;;;;;;;4.87;3.10;;;27.40;99.90;;;;;;5049570;28;20227;-51
2023/06/05 12:10:20;;;;;;;5.60;3.10;;;27.00;99.90;;;;;;5049093;28;20714;-52
2023/06/05 12:12:52;;;;;;;4.93;2.73;;;27.10;99.90;;;;;;5048905;28;20227;-51
2023/06/05 12:15:21;;;;;;;6.77;2.60;;;26.90;99.90;;;;;;5050684;28;20211;-52
2023/06/05 12:17:50;;;;;;;5.30;2.90;;;26.70;99.90;;;;;;5049017;28;20238;-52
2023/06/05 12:20:19;;;;;;;4.47;2.40;;;26.70;99.90;;;;;;5043892;28;20229;-51
2023/06/05 12:22:47;;;;;;;6.10;2.53;;;26.90;99.90;;;;;;5045874;28;20957;-51
2023/06/05 12:25:20;;;;;;;5.90;2.50;;;26.90;99.90;;;;;;5047433;28;20238;-54
2023/06/05 12:27:49;;;;;;;6.50;2.60;;;26.80;99.90;;;;;;5046023;28;20344;-56
2023/06/05 12:30:17;;;;;;;7.10;2.90;;;26.90;99.90;;;;;;5043430;28;20239;-53
2023/06/05 12:32:46;;;;;;;4.03;2.50;;;26.90;99.90;;;;;;5046650;28;20230;-54
2023/06/05 12:35:21;;;;;;;5.30;2.63;;;26.90;99.90;;;;;;5047474;28;20234;-55
2023/06/05 12:37:50;;;;;;;4.17;2.37;;;27.10;99.90;;;;;;5048371;28;20231;-54
2023/06/05 12:40:21;;;;;;;6.40;2.83;;;26.80;99.90;;;;;;5047644;28;20234;-54
2023/06/05 12:43:04;;;;;;;3.70;2.80;;;26.70;99.90;;;;;;5048083;28;20226;-54
2023/06/05 12:45:33;;;;;;;5.93;2.53;;;26.50;99.90;;;;;;5047495;28;20309;-55
2023/06/05 12:48:01;;;;;;;3.97;2.57;;;26.60;99.90;;;;;;5047341;28;20238;-55
2023/06/05 12:50:30;;;;;;;5.37;2.50;;;26.60;99.90;;;;;;5042566;28;20259;-53
2023/06/05 12:52:58;;;;;;;5.23;2.73;;;26.50;99.90;;;;;;5045812;28;20242;-55
2023/06/05 12:55:27;;;;;;;4.33;2.10;;;26.40;99.90;;;;;;5045498;28;20244;-53
2023/06/05 12:57:55;;;;;;;5.33;2.73;;;26.40;99.90;;;;;;5047397;28;20249;-51
2023/06/05 13:00:24;;;;;;;3.63;2.30;;;26.20;99.90;;;;;;5045824;28;20226;-53
2023/06/05 13:02:52;;;;;;;5.23;2.23;;;26.20;99.90;;;;;;5047184;28;20545;-51